createdAt,value
2019-06-08T00:02:31.738Z,100739.11
2019-06-08T00:05:21.355Z,100736.07
2019-06-08T00:08:10.269Z,100718.64
2019-06-08T00:10:59.629Z,100725.29
2019-06-08T00:13:48.436Z,100724.91
2019-06-08T00:16:38.505Z,100723.06
2019-06-08T00:19:28.240Z,100713.25
2019-06-08T00:22:17.697Z,100719.14
2019-06-08T00:25:07.005Z,100714.13
2019-06-08T00:27:55.841Z,100710.67
2019-06-08T00:30:45.545Z,100713.37
2019-06-08T00:33:35.343Z,100715.72
2019-06-08T00:36:25.033Z,100708.48
2019-06-08T00:39:14.730Z,100699.66
2019-06-08T00:42:03.745Z,100697.44
2019-06-08T00:44:53.013Z,100694.74
2019-06-08T00:47:47.910Z,100689.86
2019-06-08T00:50:36.569Z,100723.16
2019-06-08T00:53:25.669Z,100703.68
2019-06-08T00:56:14.876Z,100722.54
2019-06-08T00:59:04.712Z,100706.95
2019-06-08T01:01:54.190Z,100720.92
2019-06-08T01:04:45.375Z,100728.25
2019-06-08T01:07:34.886Z,100721.28
2019-06-08T01:10:25.572Z,100729.94
2019-06-08T01:13:16.168Z,100716.56
2019-06-08T01:16:05.765Z,100730.14
2019-06-08T01:18:55.277Z,100727.45
2019-06-08T01:21:45.454Z,100734.42
2019-06-08T01:24:34.759Z,100736.84
2019-06-08T01:27:24.279Z,100745.42
2019-06-08T01:30:14.107Z,100741.11
2019-06-08T01:33:03.835Z,100739.00
2019-06-08T01:35:52.744Z,100738.65
2019-06-08T01:38:42.106Z,100734.34
2019-06-08T01:41:31.874Z,100718.30
2019-06-08T01:44:21.608Z,100717.07
2019-06-08T01:47:11.259Z,100727.08
2019-06-08T01:50:00.594Z,100725.34
2019-06-08T01:52:50.371Z,100722.77
2019-06-08T01:55:39.655Z,100713.46
2019-06-08T01:58:29.466Z,100713.11
2019-06-08T02:01:18.726Z,100731.08
2019-06-08T02:04:08.950Z,100717.73
2019-06-08T02:06:58.389Z,100703.89
2019-06-08T02:09:47.849Z,100708.92
2019-06-08T02:12:36.485Z,100714.77
2019-06-08T02:15:31.809Z,100721.50
2019-06-08T02:18:35.326Z,100719.88
2019-06-08T02:21:12.435Z,100719.88
2019-06-08T02:24:01.886Z,100706.08
2019-06-08T02:26:52.106Z,100715.96
2019-06-08T02:29:42.207Z,100726.84
2019-06-08T02:32:33.489Z,100728.42
2019-06-08T02:35:23.119Z,100745.45
2019-06-08T02:38:12.565Z,100726.80
2019-06-08T02:41:02.173Z,100733.80
2019-06-08T02:43:51.907Z,100728.03
2019-06-08T02:46:42.104Z,100730.38
2019-06-08T02:49:33.206Z,100732.69
2019-06-08T02:52:23.053Z,100749.22
2019-06-08T02:55:13.821Z,100742.95
2019-06-08T02:58:03.893Z,100772.33
2019-06-08T03:00:58.206Z,100764.44
2019-06-08T03:03:45.905Z,100749.40
2019-06-08T03:06:36.591Z,100751.20
2019-06-08T03:09:26.847Z,100776.39
2019-06-08T03:12:16.660Z,100765.39
2019-06-08T03:15:07.618Z,100768.19
2019-06-08T03:17:56.999Z,100774.42
2019-06-08T03:20:45.733Z,100778.19
2019-06-08T03:23:36.278Z,100783.79
2019-06-08T03:26:25.020Z,100772.29
2019-06-08T03:29:14.425Z,100782.66
2019-06-08T03:32:03.167Z,100787.39
2019-06-08T03:34:56.524Z,100793.84
2019-06-08T03:37:44.481Z,100793.09
2019-06-08T03:40:33.932Z,100799.09
2019-06-08T03:43:23.576Z,100802.73
2019-06-08T03:46:13.156Z,100793.43
2019-06-08T03:49:01.971Z,100805.64
2019-06-08T03:51:51.645Z,100809.79
2019-06-08T03:54:42.569Z,100818.33
2019-06-08T03:57:31.827Z,100815.00
2019-06-08T04:00:20.990Z,100817.80
2019-06-08T04:03:10.917Z,100825.09
2019-06-08T04:06:00.088Z,100811.02
2019-06-08T04:08:49.961Z,100823.58
2019-06-08T04:11:42.025Z,100814.00
2019-06-08T04:14:30.743Z,100807.77
2019-06-08T04:17:19.963Z,100802.89
2019-06-08T04:20:11.649Z,100811.17
2019-06-08T04:22:59.550Z,100805.87
2019-06-08T04:25:50.648Z,100814.53
2019-06-08T04:28:40.604Z,100803.11
2019-06-08T04:31:30.704Z,100821.94
2019-06-08T04:34:19.858Z,100815.22
2019-06-08T04:37:09.173Z,100815.70
2019-06-08T04:39:58.269Z,100832.05
2019-06-08T04:42:49.350Z,100847.70
2019-06-08T04:45:39.231Z,100844.66
2019-06-08T04:48:29.587Z,100835.31
2019-06-08T04:51:18.330Z,100844.38
2019-06-08T04:54:07.908Z,100842.03
2019-06-08T04:56:57.291Z,100836.87
2019-06-08T04:59:48.395Z,100839.95
2019-06-08T05:02:39.217Z,100849.25
2019-06-08T05:05:27.785Z,100860.97
2019-06-08T05:08:17.610Z,100867.41
2019-06-08T05:11:06.962Z,100877.09
2019-06-08T05:13:56.228Z,100853.39
2019-06-08T05:16:45.380Z,100901.30
2019-06-08T05:19:35.060Z,100913.03
2019-06-08T05:22:24.689Z,100899.95
2019-06-08T05:25:14.491Z,100892.27
2019-06-08T05:28:04.250Z,100904.77
2019-06-08T05:30:53.644Z,100894.00
2019-06-08T05:33:43.429Z,100901.12
2019-06-08T05:36:33.129Z,100902.07
2019-06-08T05:39:22.887Z,100897.27
2019-06-08T05:42:12.134Z,100915.02
2019-06-08T05:45:01.235Z,100903.42
2019-06-08T05:47:51.046Z,100907.84
2019-06-08T05:50:54.933Z,100919.16
2019-06-08T05:53:31.265Z,100925.78
2019-06-08T05:56:20.230Z,100932.04
2019-06-08T05:59:10.138Z,100930.20
2019-06-08T06:01:59.664Z,100938.55
2019-06-08T07:02:32.720Z,101042.75
2019-06-08T07:05:21.468Z,101061.23
2019-06-08T07:08:11.004Z,101054.50
2019-06-08T07:11:00.302Z,101061.02
2019-06-08T07:13:50.810Z,101077.63
2019-06-08T07:16:40.693Z,101062.83
2019-06-08T07:19:30.458Z,101069.09
2019-06-08T07:22:20.397Z,101063.33
2019-06-08T07:25:10.011Z,101077.83
2019-06-08T07:27:59.370Z,101094.27
2019-06-08T07:30:49.262Z,101080.42
2019-06-08T07:33:38.614Z,101090.82
2019-06-08T07:36:28.183Z,101106.97
2019-06-08T07:39:17.673Z,101105.13
2019-06-08T07:42:07.453Z,101102.83
2019-06-08T07:44:56.850Z,101108.11
2019-06-08T07:47:47.854Z,101118.28
2019-06-08T07:50:37.908Z,101132.97
2019-06-08T07:53:26.950Z,101136.91
2019-06-08T07:56:16.862Z,101132.70
2019-06-08T07:59:06.093Z,101135.84
2019-06-08T08:01:56.061Z,101144.22
2019-06-08T08:04:46.077Z,101136.14
2019-06-08T08:07:34.844Z,101138.63
2019-06-08T08:10:24.476Z,101147.09
2019-06-08T08:13:14.032Z,101151.52
2019-06-08T08:16:02.987Z,101159.70
2019-06-08T08:18:53.411Z,101156.80
2019-06-08T08:21:43.485Z,101161.23
2019-06-08T08:24:33.356Z,101154.76
2019-06-08T08:27:22.399Z,101166.41
2019-06-08T08:30:11.166Z,101177.07
2019-06-08T08:33:02.986Z,101171.19
2019-06-08T08:35:52.172Z,101188.69
2019-06-08T08:38:42.647Z,101193.58
2019-06-08T08:41:32.305Z,101193.97
2019-06-08T08:44:21.392Z,101193.02
2019-06-08T08:47:10.862Z,101192.52
2019-06-08T08:50:01.865Z,101193.52
2019-06-08T08:52:52.281Z,101187.84
2019-06-08T08:55:42.285Z,101199.17
2019-06-08T08:58:31.056Z,101196.67
2019-06-08T09:01:20.531Z,101208.40
2019-06-08T09:04:10.676Z,101200.42
2019-06-08T09:07:05.507Z,101198.82
2019-06-08T09:09:51.992Z,101201.97
2019-06-08T09:12:41.183Z,101201.51
2019-06-08T09:15:31.535Z,101205.16
2019-06-08T09:18:21.316Z,101216.48
2019-06-08T09:21:11.048Z,101220.16
2019-06-08T09:24:03.509Z,101226.49
2019-06-08T09:26:53.084Z,101222.06
2019-06-08T09:29:42.717Z,101217.56
2019-06-08T09:32:32.812Z,101229.74
2019-06-08T09:35:21.811Z,101225.80
2019-06-08T09:38:11.850Z,101232.73
2019-06-08T09:41:05.138Z,101242.73
2019-06-08T09:43:55.262Z,101233.87
2019-06-08T09:46:43.529Z,101240.80
2019-06-08T09:49:33.006Z,101256.09
2019-06-08T09:52:22.676Z,101247.83
2019-06-08T09:55:11.646Z,101282.80
2019-06-08T09:58:05.123Z,101274.83
2019-06-08T10:00:54.572Z,101271.25
2019-06-08T10:03:43.519Z,101279.32
2019-06-08T10:06:32.904Z,101268.20
2019-06-08T10:09:22.364Z,101289.23
2019-06-08T10:12:12.030Z,101306.62
2019-06-08T10:15:02.858Z,101308.36
2019-06-08T10:17:53.521Z,101311.91
2019-06-08T10:20:44.053Z,101326.33
2019-06-08T10:23:34.660Z,101319.88
2019-06-08T10:26:24.574Z,101333.17
2019-06-08T10:29:13.753Z,101333.83
2019-06-08T10:32:03.828Z,101342.95
2019-06-08T10:34:53.568Z,101340.47
2019-06-08T10:37:43.130Z,101346.45
2019-06-08T10:40:32.366Z,101362.40
2019-06-08T10:43:22.169Z,101362.59
2019-06-08T10:46:16.994Z,101370.58
2019-06-08T10:49:05.941Z,101364.70
2019-06-08T10:51:55.184Z,101373.76
2019-06-08T10:54:48.768Z,101399.14
2019-06-08T10:57:38.540Z,101384.80
2019-06-08T11:00:29.297Z,101382.20
2019-06-08T11:03:20.176Z,101367.80
2019-06-08T11:06:13.047Z,101372.98
2019-06-08T11:09:06.091Z,101391.08
2019-06-08T11:11:58.372Z,101404.15
2019-06-08T11:14:48.164Z,101397.05
2019-06-08T11:17:38.017Z,101387.98
2019-06-08T11:20:27.603Z,101399.46
2019-06-08T11:23:19.289Z,101416.30
2019-06-08T11:26:19.121Z,101413.11
2019-06-08T11:29:02.768Z,101426.27
2019-06-08T11:31:53.612Z,101417.39
2019-06-08T11:34:44.717Z,101441.08
2019-06-08T11:37:40.957Z,101431.22
2019-06-08T11:40:30.168Z,101444.30
2019-06-08T11:43:21.809Z,101442.17
2019-06-08T11:46:12.658Z,101446.97
2019-06-08T11:49:06.176Z,101453.04
2019-06-08T11:51:54.127Z,101472.56
2019-06-08T11:54:47.907Z,101472.86
2019-06-08T11:57:40.427Z,101475.24
2019-06-08T12:01:00.892Z,101492.22
2019-06-08T12:03:48.397Z,101492.31
2019-06-08T12:06:38.251Z,101508.61
2019-06-08T12:09:28.812Z,101522.67
2019-06-08T12:12:21.376Z,101525.67
2019-06-08T12:15:13.199Z,101525.28
2019-06-08T12:18:01.574Z,101530.39
2019-06-08T12:20:52.563Z,101534.83
2019-06-08T12:23:43.215Z,101540.59
2019-06-08T12:26:33.765Z,101527.27
2019-06-08T12:29:23.198Z,101542.48
2019-06-08T12:32:14.314Z,101532.09
2019-06-08T12:35:03.443Z,101543.75
2019-06-08T12:37:52.961Z,101544.11
2019-06-08T12:40:42.336Z,101552.84
2019-06-08T12:43:31.146Z,101545.53
2019-06-08T12:46:21.479Z,101540.23
2019-06-08T12:49:12.907Z,101552.00
2019-06-08T12:52:02.178Z,101562.83
2019-06-08T12:55:02.491Z,101569.41
2019-06-08T12:57:43.336Z,101575.58
2019-06-08T13:00:32.714Z,101579.94
2019-06-08T13:03:22.427Z,101588.17
2019-06-08T13:06:12.493Z,101588.58
2019-06-08T13:09:02.666Z,101587.80
2019-06-08T13:11:51.346Z,101584.14
2019-06-08T13:14:41.188Z,101584.03
2019-06-08T13:17:30.629Z,101584.42
2019-06-08T13:20:22.387Z,101606.69
2019-06-08T13:23:12.997Z,101630.77
2019-06-08T13:26:02.779Z,101608.52
2019-06-08T13:28:52.458Z,101602.34
2019-06-08T13:31:41.860Z,101613.63
2019-06-08T13:34:31.155Z,101606.48
2019-06-08T13:37:22.080Z,101616.42
2019-06-08T13:40:15.218Z,101609.98
2019-06-08T13:43:04.761Z,101611.02
2019-06-08T13:45:54.335Z,101604.53
2019-06-08T13:48:45.178Z,101603.13
2019-06-08T13:51:34.567Z,101607.72
2019-06-08T13:54:25.398Z,101618.82
2019-06-08T13:57:15.042Z,101625.61
2019-06-08T14:00:05.008Z,101624.85
2019-06-08T14:02:54.160Z,101604.91
2019-06-08T14:05:42.836Z,101634.33
2019-06-08T14:08:33.062Z,101619.67
2019-06-08T14:11:24.092Z,101605.47
2019-06-08T14:14:13.931Z,101639.38
2019-06-08T14:17:08.347Z,101628.91
2019-06-08T14:19:59.327Z,101618.95
2019-06-08T14:22:50.416Z,101632.45
2019-06-08T14:25:50.612Z,101641.20
2019-06-08T14:28:30.440Z,101645.57
2019-06-08T14:31:23.263Z,101641.51
2019-06-08T14:34:11.671Z,101659.11
2019-06-08T14:37:01.012Z,101660.97
2019-06-08T14:39:50.472Z,101665.14
2019-06-08T14:42:40.031Z,101675.98
2019-06-08T14:45:32.250Z,101678.91
2019-06-08T14:48:25.551Z,101674.55
2019-06-08T14:51:12.128Z,101675.75
2019-06-08T14:54:00.680Z,101684.22
2019-06-08T14:56:50.182Z,101696.67
2019-06-08T14:59:39.824Z,101701.16
2019-06-08T15:02:31.286Z,101690.64
2019-06-08T15:05:21.514Z,101704.05
2019-06-08T15:08:12.094Z,101699.74
2019-06-08T15:11:03.808Z,101711.47
2019-06-08T15:13:53.960Z,101718.25
2019-06-08T15:16:44.583Z,101737.55
2019-06-08T15:19:33.569Z,101715.41
2019-06-08T15:22:22.722Z,101726.91
2019-06-08T15:25:13.507Z,101731.00
2019-06-08T15:28:02.965Z,101732.50
2019-06-08T15:30:52.482Z,101739.30
2019-06-08T15:33:41.944Z,101724.97
2019-06-08T15:36:32.540Z,101746.23
2019-06-08T15:39:23.390Z,101735.76
2019-06-08T15:42:13.388Z,101747.75
2019-06-08T15:45:02.322Z,101768.35
2019-06-08T15:47:52.527Z,101769.59
2019-06-08T15:50:42.735Z,101755.03
2019-06-08T15:53:33.041Z,101784.92
2019-06-08T15:56:43.145Z,101772.84
2019-06-08T15:59:18.238Z,101774.70
2019-06-08T16:02:07.580Z,101767.78
2019-06-08T16:04:57.258Z,101771.85
2019-06-08T16:07:46.276Z,101774.65
2019-06-08T16:10:35.846Z,101779.49
2019-06-08T16:13:26.705Z,101770.30
2019-06-08T16:16:16.408Z,101768.67
2019-06-08T16:19:06.214Z,101782.70
2019-06-08T16:21:55.405Z,101805.18
2019-06-08T16:24:45.055Z,101786.17
2019-06-08T16:27:35.898Z,101790.75
2019-06-08T16:30:26.639Z,101814.34
2019-06-08T16:33:16.729Z,101813.20
2019-06-08T16:36:07.601Z,101794.80
2019-06-08T16:38:57.565Z,101801.50
2019-06-08T16:41:47.047Z,101812.02
2019-06-08T16:44:36.461Z,101806.73
2019-06-08T16:47:26.982Z,101813.66
2019-06-08T16:50:24.511Z,101816.92
2019-06-08T16:53:09.801Z,101820.89
2019-06-08T16:55:58.434Z,101819.06
2019-06-08T16:58:47.501Z,101815.64
2019-06-08T17:01:38.937Z,101817.89
2019-06-08T17:04:28.839Z,101833.37
2019-06-08T17:07:18.762Z,101832.63
2019-06-08T17:10:09.594Z,101846.10
2019-06-08T17:12:58.801Z,101844.75
2019-06-08T17:15:48.602Z,101845.98
2019-06-08T17:18:38.721Z,101857.98
2019-06-08T17:21:30.119Z,101859.44
2019-06-08T17:24:19.762Z,101872.05
2019-06-08T17:27:25.855Z,101873.78
2019-06-08T17:30:08.328Z,101867.83
2019-06-08T17:32:53.937Z,101879.06
2019-06-08T17:35:43.049Z,101886.06
2019-06-08T17:38:31.847Z,101881.58
2019-06-08T17:41:21.090Z,101890.66
2019-06-08T17:44:10.447Z,101893.54
2019-06-08T17:46:59.306Z,101891.16
2019-06-08T17:49:49.018Z,101890.13
2019-06-08T17:52:41.038Z,101891.03
2019-06-08T17:55:33.139Z,101889.02
2019-06-08T17:58:24.898Z,101899.30
2019-06-08T18:01:14.675Z,101904.02
2019-06-08T18:04:04.313Z,101911.11
2019-06-08T18:06:53.465Z,101905.33
2019-06-08T18:09:48.333Z,101909.85
2019-06-08T18:12:40.767Z,101920.27
2019-06-08T18:15:28.482Z,101930.03
2019-06-08T18:18:19.282Z,101927.77
2019-06-08T18:21:08.852Z,101923.38
2019-06-08T18:23:58.491Z,101928.45
2019-06-08T18:26:48.927Z,101931.49
2019-06-08T18:29:39.634Z,101933.29
2019-06-08T18:32:28.803Z,101935.05
2019-06-08T18:35:21.537Z,101952.98
2019-06-08T18:38:14.129Z,101954.88
2019-06-08T18:41:03.809Z,101959.83
2019-06-08T18:43:58.202Z,101964.50
2019-06-08T18:46:50.627Z,101963.14
2019-06-08T18:49:42.592Z,101974.89
2019-06-08T18:52:31.319Z,101974.23
2019-06-08T18:55:20.964Z,101972.91
2019-06-08T18:58:24.632Z,101976.13
2019-06-08T19:01:22.909Z,101980.67
2019-06-08T19:04:12.707Z,101982.54
2019-06-08T19:07:02.770Z,101986.32
2019-06-08T19:09:51.925Z,101983.23
2019-06-08T19:12:43.288Z,101993.39
2019-06-08T19:15:39.866Z,101995.22
2019-06-08T19:18:29.305Z,102001.02
2019-06-08T19:21:42.825Z,101991.53
2019-06-08T19:24:39.029Z,101995.38
2019-06-08T19:27:27.754Z,101996.34
2019-06-08T19:30:20.368Z,102009.35
2019-06-08T19:33:10.655Z,102007.93
2019-06-08T19:35:59.364Z,102013.69
2019-06-08T19:38:54.198Z,102013.48
2019-06-08T19:41:41.511Z,102022.73
2019-06-08T19:44:35.104Z,102022.17
2019-06-08T19:47:27.616Z,102030.06
2019-06-08T19:50:18.563Z,102036.20
2019-06-08T19:53:08.958Z,102045.55
2019-06-08T19:55:59.163Z,102049.88
2019-06-08T19:59:00.930Z,102051.61
2019-06-08T20:01:41.540Z,102054.55
2019-06-08T20:04:38.609Z,102053.57
2019-06-08T20:07:28.409Z,102069.64
2019-06-08T20:10:17.587Z,102064.21
2019-06-08T20:13:09.052Z,102064.54
2019-06-08T20:16:02.207Z,102073.38
2019-06-08T20:18:51.671Z,102078.18
2019-06-08T20:21:41.019Z,102089.61
2019-06-08T20:24:30.171Z,102083.12
2019-06-08T20:27:21.703Z,102089.16
2019-06-08T20:30:12.328Z,102095.23
2019-06-08T20:33:03.581Z,102098.10
2019-06-08T20:35:53.979Z,102112.22
2019-06-08T20:38:44.755Z,102116.90
2019-06-08T20:41:37.630Z,102108.53
2019-06-08T20:44:29.921Z,102125.75
2019-06-08T20:47:17.911Z,102116.94
2019-06-08T20:50:08.127Z,102122.91
2019-06-08T20:52:57.986Z,102119.58
2019-06-08T20:55:51.191Z,102130.05
2019-06-08T20:58:45.368Z,102133.40
2019-06-08T21:01:36.299Z,102138.47
2019-06-08T21:04:27.675Z,102135.95
2019-06-08T21:07:17.513Z,102136.52
2019-06-08T21:10:08.311Z,102143.40
2019-06-08T21:12:58.788Z,102137.77
2019-06-08T21:15:52.633Z,102147.78
2019-06-08T21:18:38.477Z,102146.59
2019-06-08T21:21:28.303Z,102161.59
2019-06-08T21:24:17.946Z,102153.27
2019-06-08T21:27:08.326Z,102158.83
2019-06-08T21:30:06.011Z,102164.42
2019-06-08T21:32:51.682Z,102167.77
2019-06-08T21:35:39.341Z,102161.57
2019-06-08T21:38:28.593Z,102160.55
2019-06-08T21:41:18.276Z,102168.77
2019-06-08T21:44:17.359Z,102169.87
2019-06-08T21:47:07.881Z,102172.72
2019-06-08T21:50:00.376Z,102168.44
2019-06-08T21:52:51.937Z,102172.23
2019-06-08T21:55:42.015Z,102169.30
2019-06-08T21:58:30.659Z,102174.76
2019-06-08T22:01:20.179Z,102177.20
2019-06-08T22:04:08.828Z,102179.56
2019-06-08T22:06:59.635Z,102181.97
2019-06-08T22:09:48.622Z,102184.33
2019-06-08T22:12:40.462Z,102187.19
2019-06-08T22:15:28.117Z,102190.00
2019-06-08T22:18:18.423Z,102191.50
2019-06-08T22:21:08.102Z,102195.77
2019-06-08T22:23:59.268Z,102197.73
2019-06-08T22:26:47.931Z,102200.13
2019-06-08T22:29:38.286Z,102212.84
2019-06-08T22:32:27.868Z,102216.63
2019-06-08T22:35:18.566Z,102209.11
2019-06-08T22:38:08.569Z,102212.41
2019-06-08T22:41:00.001Z,102217.00
2019-06-08T22:43:49.584Z,102221.19
2019-06-08T22:46:38.499Z,102219.96
2019-06-08T22:49:28.084Z,102222.34
2019-06-08T22:52:18.640Z,102223.44
2019-06-08T22:55:10.925Z,102230.31
2019-06-08T22:58:01.909Z,102225.05
2019-06-08T23:00:53.070Z,102233.27
2019-06-08T23:03:42.809Z,102230.72
2019-06-08T23:06:34.487Z,102235.31
2019-06-08T23:09:23.151Z,102237.26
2019-06-08T23:12:12.542Z,102238.27
2019-06-08T23:15:02.343Z,102239.75
2019-06-08T23:17:52.979Z,102248.45
2019-06-08T23:20:43.348Z,102246.77
2019-06-08T23:23:33.903Z,102252.22
2019-06-08T23:26:24.207Z,102253.19
2019-06-08T23:29:13.576Z,102246.20
2019-06-08T23:32:04.874Z,102252.58
2019-06-08T23:34:54.319Z,102253.20
2019-06-08T23:37:44.368Z,102258.17
2019-06-08T23:40:33.082Z,102258.31
2019-06-08T23:43:22.636Z,102261.59
2019-06-08T23:46:12.031Z,102262.56
2019-06-08T23:49:02.442Z,102259.53
2019-06-08T23:51:52.020Z,102262.73
2019-06-08T23:54:40.667Z,102256.16
2019-06-08T23:57:30.156Z,102264.36
